Huvudsida
METAR-TAF:

METAR-TAF

Flygplatser :

Bahrains internationella flygplats

Bahrain, Bahrain

latitud: 26-16N, longitud: 050-39E, höjd: 2 m

Aktuellt väderrapport

Denna rapport gjordes för 22 minuter sedan, klockan 15:00 UTC
Vind 7 kt från nord
Temperatur 34°C
Fuktighet 60%
Tryck 1005 hPa
Sikt 10 km eller mer
Inga moln under 1 500 m eller inga cumulonimbus

METAR: OBBI 261500Z 35007KT CAVOK 34/25 Q1005 NOSIG

Tid: 18:22 (15:22 UTC)

Väderprognos

Denna rapport gjordes för 4 timmar och 22 minuter sedan, klockan 11:00 UTC
Prognos gäller från 26 kl. 12 UTC till 27 kl. 18 UTC
Vind 10 kt från nord/nordväst
Sikt 10 km eller mer
Inga moln under 1 500 m eller inga cumulonimbus
Blir
från 26 kl. 15 UTC till 26 kl. 17 UTC
Vind 5 kt från nordost
Sannolikhet 30% :
Temporärt
från 27 kl. 00 UTC till 27 kl. 04 UTC
Sikt: 5000 m
torrdis

TAF: OBBI 261100Z 2612/2718 33010KT CAVOK BECMG 2615/2617 05005KT PROB30 TEMPO 2700/2704 5000 HZ NSC

Aktuella väderrapporter och prognoser från 4000 flygplatser (METAR- och TAF-rapporter).

De tillgängliga stationerna syns som gula och röda prickar på kartan.

För musen över prickarna för att se namnen på stationerna.

Klicka sedan för att få väderrapporter och prognoser.

För att ändra kartan: Klicka på de gröna knapparna med ett svart kors på för att zooma in; den gröna knappen med ett streck på för att zooma ut; eller på de gröna pilarna för angränsande kartor.


METAR-TAF: